sensor_id;sensor_type;location;lat;lon;timestamp;temperature;humidity
2757;DHT22;1386;50.862;6.494;2022-07-05T00:02:24;18.50;98.60
2757;DHT22;1386;50.862;6.494;2022-07-05T00:04:52;18.50;98.70
2757;DHT22;1386;50.862;6.494;2022-07-05T00:07:19;18.50;98.80
2757;DHT22;1386;50.862;6.494;2022-07-05T00:09:47;18.40;98.90
2757;DHT22;1386;50.862;6.494;2022-07-05T00:12:15;18.40;99.10
2757;DHT22;1386;50.862;6.494;2022-07-05T00:14:42;18.30;99.20
2757;DHT22;1386;50.862;6.494;2022-07-05T00:17:10;18.30;99.60
2757;DHT22;1386;50.862;6.494;2022-07-05T00:19:37;18.30;99.60
2757;DHT22;1386;50.862;6.494;2022-07-05T00:22:06;18.20;99.90
2757;DHT22;1386;50.862;6.494;2022-07-05T00:24:33;18.30;99.90
2757;DHT22;1386;50.862;6.494;2022-07-05T00:27:01;18.20;99.90
2757;DHT22;1386;50.862;6.494;2022-07-05T00:29:28;18.20;99.90
2757;DHT22;1386;50.862;6.494;2022-07-05T00:31:55;18.20;99.90
2757;DHT22;1386;50.862;6.494;2022-07-05T00:34:23;18.10;99.90
2757;DHT22;1386;50.862;6.494;2022-07-05T00:36:50;18.10;99.90
2757;DHT22;1386;50.862;6.494;2022-07-05T00:39:18;18.10;99.90
2757;DHT22;1386;50.862;6.494;2022-07-05T00:41:45;18.00;99.90
2757;DHT22;1386;50.862;6.494;2022-07-05T00:44:12;18.00;99.90
2757;DHT22;1386;50.862;6.494;2022-07-05T00:46:41;17.90;99.90
2757;DHT22;1386;50.862;6.494;2022-07-05T00:49:08;17.90;99.90
2757;DHT22;1386;50.862;6.494;2022-07-05T00:51:36;17.80;99.90
2757;DHT22;1386;50.862;6.494;2022-07-05T00:54:06;17.80;99.90
2757;DHT22;1386;50.862;6.494;2022-07-05T00:56:34;17.70;99.90
2757;DHT22;1386;50.862;6.494;2022-07-05T00:59:01;17.70;99.90
2757;DHT22;1386;50.862;6.494;2022-07-05T01:01:30;17.70;99.90
2757;DHT22;1386;50.862;6.494;2022-07-05T01:03:57;17.60;99.90
2757;DHT22;1386;50.862;6.494;2022-07-05T01:06:26;17.70;99.90
2757;DHT22;1386;50.862;6.494;2022-07-05T01:08:53;17.70;99.90
2757;DHT22;1386;50.862;6.494;2022-07-05T01:11:20;17.70;99.90
2757;DHT22;1386;50.862;6.494;2022-07-05T01:13:48;17.70;99.90
2757;DHT22;1386;50.862;6.494;2022-07-05T01:16:15;17.70;99.90
2757;DHT22;1386;50.862;6.494;2022-07-05T01:18:43;17.60;99.90
2757;DHT22;1386;50.862;6.494;2022-07-05T01:21:12;17.60;99.90
2757;DHT22;1386;50.862;6.494;2022-07-05T01:23:41;17.50;99.90
2757;DHT22;1386;50.862;6.494;2022-07-05T01:26:09;17.40;99.90
2757;DHT22;1386;50.862;6.494;2022-07-05T01:28:35;17.40;99.90
2757;DHT22;1386;50.862;6.494;2022-07-05T01:31:02;17.30;99.90
2757;DHT22;1386;50.862;6.494;2022-07-05T01:33:30;17.20;99.90
2757;DHT22;1386;50.862;6.494;2022-07-05T01:35:58;17.20;99.90
2757;DHT22;1386;50.862;6.494;2022-07-05T01:38:25;17.10;99.90
2757;DHT22;1386;50.862;6.494;2022-07-05T01:40:54;17.10;99.90
2757;DHT22;1386;50.862;6.494;2022-07-05T01:43:23;17.20;99.90
2757;DHT22;1386;50.862;6.494;2022-07-05T01:45:50;17.10;99.90
2757;DHT22;1386;50.862;6.494;2022-07-05T01:48:19;17.10;99.90
2757;DHT22;1386;50.862;6.494;2022-07-05T01:50:50;17.00;99.90
2757;DHT22;1386;50.862;6.494;2022-07-05T01:53:19;17.00;99.90
2757;DHT22;1386;50.862;6.494;2022-07-05T01:55:48;17.00;99.90
2757;DHT22;1386;50.862;6.494;2022-07-05T01:58:17;17.10;99.90
2757;DHT22;1386;50.862;6.494;2022-07-05T02:00:44;17.00;99.90
2757;DHT22;1386;50.862;6.494;2022-07-05T02:03:12;17.00;99.90
2757;DHT22;1386;50.862;6.494;2022-07-05T02:05:40;16.90;99.90
2757;DHT22;1386;50.862;6.494;2022-07-05T02:08:07;16.90;99.90
2757;DHT22;1386;50.862;6.494;2022-07-05T02:10:34;16.80;99.90
2757;DHT22;1386;50.862;6.494;2022-07-05T02:13:01;16.80;99.90
2757;DHT22;1386;50.862;6.494;2022-07-05T02:15:31;16.90;99.90
2757;DHT22;1386;50.862;6.494;2022-07-05T02:17:58;16.90;99.90
2757;DHT22;1386;50.862;6.494;2022-07-05T02:20:26;16.80;99.90
2757;DHT22;1386;50.862;6.494;2022-07-05T02:22:53;16.80;99.90
2757;DHT22;1386;50.862;6.494;2022-07-05T02:25:20;16.80;99.90
2757;DHT22;1386;50.862;6.494;2022-07-05T02:27:47;16.70;99.90
2757;DHT22;1386;50.862;6.494;2022-07-05T02:30:14;16.70;99.90
2757;DHT22;1386;50.862;6.494;2022-07-05T02:32:42;16.80;99.90
2757;DHT22;1386;50.862;6.494;2022-07-05T02:35:10;16.80;99.90
2757;DHT22;1386;50.862;6.494;2022-07-05T02:37:38;16.80;99.90
2757;DHT22;1386;50.862;6.494;2022-07-05T02:40:06;16.90;99.90
2757;DHT22;1386;50.862;6.494;2022-07-05T02:42:33;16.90;99.90
2757;DHT22;1386;50.862;6.494;2022-07-05T02:45:01;16.90;99.90
2757;DHT22;1386;50.862;6.494;2022-07-05T02:47:29;16.80;99.90
2757;DHT22;1386;50.862;6.494;2022-07-05T02:50:02;16.80;99.90
2757;DHT22;1386;50.862;6.494;2022-07-05T02:52:29;16.70;99.90
2757;DHT22;1386;50.862;6.494;2022-07-05T02:54:56;16.70;99.90
2757;DHT22;1386;50.862;6.494;2022-07-05T02:57:24;16.70;99.90
2757;DHT22;1386;50.862;6.494;2022-07-05T02:59:52;16.70;99.90
2757;DHT22;1386;50.862;6.494;2022-07-05T03:02:20;16.70;99.90
2757;DHT22;1386;50.862;6.494;2022-07-05T03:04:47;16.70;99.90
2757;DHT22;1386;50.862;6.494;2022-07-05T03:07:16;16.70;99.90
2757;DHT22;1386;50.862;6.494;2022-07-05T03:09:43;16.70;99.90
2757;DHT22;1386;50.862;6.494;2022-07-05T03:12:11;16.70;99.90
2757;DHT22;1386;50.862;6.494;2022-07-05T03:14:38;16.70;99.90
2757;DHT22;1386;50.862;6.494;2022-07-05T03:17:05;16.70;99.90
2757;DHT22;1386;50.862;6.494;2022-07-05T03:19:32;16.70;99.90
2757;DHT22;1386;50.862;6.494;2022-07-05T03:21:59;16.60;99.90
2757;DHT22;1386;50.862;6.494;2022-07-05T03:24:27;16.60;99.90
2757;DHT22;1386;50.862;6.494;2022-07-05T03:26:54;16.70;99.90
2757;DHT22;1386;50.862;6.494;2022-07-05T03:29:21;16.60;99.90
2757;DHT22;1386;50.862;6.494;2022-07-05T03:31:48;16.60;99.90
2757;DHT22;1386;50.862;6.494;2022-07-05T03:34:15;16.70;99.90
2757;DHT22;1386;50.862;6.494;2022-07-05T03:36:42;16.70;99.90
2757;DHT22;1386;50.862;6.494;2022-07-05T03:39:09;16.70;99.90
2757;DHT22;1386;50.862;6.494;2022-07-05T03:41:37;16.70;99.90
2757;DHT22;1386;50.862;6.494;2022-07-05T03:44:04;16.70;99.90
2757;DHT22;1386;50.862;6.494;2022-07-05T03:46:31;16.80;99.90
2757;DHT22;1386;50.862;6.494;2022-07-05T03:48:58;16.70;99.90
2757;DHT22;1386;50.862;6.494;2022-07-05T03:51:24;16.80;99.90
2757;DHT22;1386;50.862;6.494;2022-07-05T03:53:51;16.90;99.90
2757;DHT22;1386;50.862;6.494;2022-07-05T03:56:18;16.80;99.90
2757;DHT22;1386;50.862;6.494;2022-07-05T03:58:50;16.90;99.90
2757;DHT22;1386;50.862;6.494;2022-07-05T04:01:17;16.90;99.90
2757;DHT22;1386;50.862;6.494;2022-07-05T04:03:44;16.90;99.90
2757;DHT22;1386;50.862;6.494;2022-07-05T04:06:11;16.80;99.90
2757;DHT22;1386;50.862;6.494;2022-07-05T04:08:38;16.80;99.90
2757;DHT22;1386;50.862;6.494;2022-07-05T04:11:05;16.80;99.90
2757;DHT22;1386;50.862;6.494;2022-07-05T04:13:33;16.80;99.90
2757;DHT22;1386;50.862;6.494;2022-07-05T04:16:01;16.90;99.90
2757;DHT22;1386;50.862;6.494;2022-07-05T04:18:28;16.90;99.90
2757;DHT22;1386;50.862;6.494;2022-07-05T04:20:55;16.80;99.90
2757;DHT22;1386;50.862;6.494;2022-07-05T04:23:22;16.80;99.90
2757;DHT22;1386;50.862;6.494;2022-07-05T04:25:49;16.80;99.90
2757;DHT22;1386;50.862;6.494;2022-07-05T04:28:16;16.80;99.90
2757;DHT22;1386;50.862;6.494;2022-07-05T04:30:43;16.80;99.90
2757;DHT22;1386;50.862;6.494;2022-07-05T04:33:11;16.80;99.90
2757;DHT22;1386;50.862;6.494;2022-07-05T04:35:38;16.80;99.90
2757;DHT22;1386;50.862;6.494;2022-07-05T04:38:05;16.80;99.90
2757;DHT22;1386;50.862;6.494;2022-07-05T04:40:32;16.80;99.90
2757;DHT22;1386;50.862;6.494;2022-07-05T04:42:59;16.80;99.90
2757;DHT22;1386;50.862;6.494;2022-07-05T04:45:25;16.80;99.90
2757;DHT22;1386;50.862;6.494;2022-07-05T04:47:52;16.70;99.90
2757;DHT22;1386;50.862;6.494;2022-07-05T04:50:21;16.70;99.90
2757;DHT22;1386;50.862;6.494;2022-07-05T04:52:47;16.80;99.90
2757;DHT22;1386;50.862;6.494;2022-07-05T04:55:14;16.80;99.90
2757;DHT22;1386;50.862;6.494;2022-07-05T04:57:42;16.80;99.90
2757;DHT22;1386;50.862;6.494;2022-07-05T05:00:11;16.80;99.90
2757;DHT22;1386;50.862;6.494;2022-07-05T05:02:39;16.80;99.90
2757;DHT22;1386;50.862;6.494;2022-07-05T05:05:06;16.90;99.90
2757;DHT22;1386;50.862;6.494;2022-07-05T05:07:35;16.90;99.90
2757;DHT22;1386;50.862;6.494;2022-07-05T05:10:04;16.90;99.90
2757;DHT22;1386;50.862;6.494;2022-07-05T05:12:31;17.00;99.90
2757;DHT22;1386;50.862;6.494;2022-07-05T05:14:59;17.00;99.90
2757;DHT22;1386;50.862;6.494;2022-07-05T05:17:34;17.00;99.90
2757;DHT22;1386;50.862;6.494;2022-07-05T05:20:03;17.00;99.90
2757;DHT22;1386;50.862;6.494;2022-07-05T05:22:30;17.10;99.90
2757;DHT22;1386;50.862;6.494;2022-07-05T05:24:58;17.10;99.90
2757;DHT22;1386;50.862;6.494;2022-07-05T05:27:25;17.20;99.90
2757;DHT22;1386;50.862;6.494;2022-07-05T05:29:52;17.20;99.90
2757;DHT22;1386;50.862;6.494;2022-07-05T05:32:19;17.30;99.90
2757;DHT22;1386;50.862;6.494;2022-07-05T05:34:45;17.30;99.90
2757;DHT22;1386;50.862;6.494;2022-07-05T05:37:12;17.40;99.90
2757;DHT22;1386;50.862;6.494;2022-07-05T05:39:39;17.30;99.90
2757;DHT22;1386;50.862;6.494;2022-07-05T05:42:08;17.30;99.90
2757;DHT22;1386;50.862;6.494;2022-07-05T05:44:35;17.30;99.90
2757;DHT22;1386;50.862;6.494;2022-07-05T05:47:01;17.40;99.90
2757;DHT22;1386;50.862;6.494;2022-07-05T05:49:28;17.40;99.90
2757;DHT22;1386;50.862;6.494;2022-07-05T05:51:55;17.30;99.90
2757;DHT22;1386;50.862;6.494;2022-07-05T05:54:22;17.30;99.90
2757;DHT22;1386;50.862;6.494;2022-07-05T05:56:49;17.40;99.90
2757;DHT22;1386;50.862;6.494;2022-07-05T05:59:17;17.50;99.90
2757;DHT22;1386;50.862;6.494;2022-07-05T06:01:44;17.50;99.90
2757;DHT22;1386;50.862;6.494;2022-07-05T06:04:11;17.60;99.90
2757;DHT22;1386;50.862;6.494;2022-07-05T06:06:38;17.70;99.90
2757;DHT22;1386;50.862;6.494;2022-07-05T06:09:06;17.70;99.90
2757;DHT22;1386;50.862;6.494;2022-07-05T06:11:33;17.80;99.90
2757;DHT22;1386;50.862;6.494;2022-07-05T06:14:00;17.80;99.90
2757;DHT22;1386;50.862;6.494;2022-07-05T06:16:28;17.70;99.90
2757;DHT22;1386;50.862;6.494;2022-07-05T06:18:55;17.80;99.90
2757;DHT22;1386;50.862;6.494;2022-07-05T06:21:22;17.80;99.90
2757;DHT22;1386;50.862;6.494;2022-07-05T06:23:49;18.00;99.90
2757;DHT22;1386;50.862;6.494;2022-07-05T06:26:15;18.00;99.90
2757;DHT22;1386;50.862;6.494;2022-07-05T06:28:42;18.10;99.90
2757;DHT22;1386;50.862;6.494;2022-07-05T06:31:09;18.10;99.90
2757;DHT22;1386;50.862;6.494;2022-07-05T06:33:37;18.20;99.90
2757;DHT22;1386;50.862;6.494;2022-07-05T06:36:04;18.30;99.90
2757;DHT22;1386;50.862;6.494;2022-07-05T06:38:31;18.40;99.90
2757;DHT22;1386;50.862;6.494;2022-07-05T06:40:58;18.50;99.90
2757;DHT22;1386;50.862;6.494;2022-07-05T06:43:25;18.50;99.90
2757;DHT22;1386;50.862;6.494;2022-07-05T06:45:52;18.70;99.90
2757;DHT22;1386;50.862;6.494;2022-07-05T06:48:19;18.80;99.90
2757;DHT22;1386;50.862;6.494;2022-07-05T06:50:48;18.90;99.90
2757;DHT22;1386;50.862;6.494;2022-07-05T06:53:14;19.00;99.90
2757;DHT22;1386;50.862;6.494;2022-07-05T06:55:41;19.20;99.90
2757;DHT22;1386;50.862;6.494;2022-07-05T06:58:10;19.30;99.90
2757;DHT22;1386;50.862;6.494;2022-07-05T07:00:38;19.50;99.90
2757;DHT22;1386;50.862;6.494;2022-07-05T07:03:05;19.70;99.90
2757;DHT22;1386;50.862;6.494;2022-07-05T07:05:32;19.90;99.90
2757;DHT22;1386;50.862;6.494;2022-07-05T07:08:00;20.00;99.90
2757;DHT22;1386;50.862;6.494;2022-07-05T07:10:44;20.20;99.90
2757;DHT22;1386;50.862;6.494;2022-07-05T07:13:11;20.30;99.90
2757;DHT22;1386;50.862;6.494;2022-07-05T07:15:38;20.40;99.90
2757;DHT22;1386;50.862;6.494;2022-07-05T07:18:06;20.50;99.90
2757;DHT22;1386;50.862;6.494;2022-07-05T07:20:33;20.70;99.90
2757;DHT22;1386;50.862;6.494;2022-07-05T07:23:01;20.80;99.90
2757;DHT22;1386;50.862;6.494;2022-07-05T07:25:28;21.10;99.90
2757;DHT22;1386;50.862;6.494;2022-07-05T07:27:55;21.20;99.90
2757;DHT22;1386;50.862;6.494;2022-07-05T07:30:24;21.30;99.90
2757;DHT22;1386;50.862;6.494;2022-07-05T07:32:51;21.40;99.90
2757;DHT22;1386;50.862;6.494;2022-07-05T07:35:18;21.50;99.90
2757;DHT22;1386;50.862;6.494;2022-07-05T07:37:46;21.60;99.90
2757;DHT22;1386;50.862;6.494;2022-07-05T07:40:14;21.60;99.90
2757;DHT22;1386;50.862;6.494;2022-07-05T07:42:40;21.80;99.90
2757;DHT22;1386;50.862;6.494;2022-07-05T07:45:09;21.90;99.90
2757;DHT22;1386;50.862;6.494;2022-07-05T07:47:36;22.10;99.90
2757;DHT22;1386;50.862;6.494;2022-07-05T07:50:04;22.10;99.90
2757;DHT22;1386;50.862;6.494;2022-07-05T07:52:32;22.10;99.90
2757;DHT22;1386;50.862;6.494;2022-07-05T07:54:59;22.20;99.90
2757;DHT22;1386;50.862;6.494;2022-07-05T07:57:28;22.40;99.90
2757;DHT22;1386;50.862;6.494;2022-07-05T07:59:55;22.40;99.90
2757;DHT22;1386;50.862;6.494;2022-07-05T08:02:22;22.50;99.90
2757;DHT22;1386;50.862;6.494;2022-07-05T08:04:49;22.70;99.90
2757;DHT22;1386;50.862;6.494;2022-07-05T08:07:16;22.90;99.90
2757;DHT22;1386;50.862;6.494;2022-07-05T08:09:45;23.00;99.70
2757;DHT22;1386;50.862;6.494;2022-07-05T08:12:12;23.00;99.40
2757;DHT22;1386;50.862;6.494;2022-07-05T08:14:40;23.10;98.50
2757;DHT22;1386;50.862;6.494;2022-07-05T08:17:07;23.30;98.10
2757;DHT22;1386;50.862;6.494;2022-07-05T08:19:35;23.10;97.20
2757;DHT22;1386;50.862;6.494;2022-07-05T08:22:19;23.10;96.70
2757;DHT22;1386;50.862;6.494;2022-07-05T08:24:46;23.20;96.80
2757;DHT22;1386;50.862;6.494;2022-07-05T08:27:14;23.30;96.40
2757;DHT22;1386;50.862;6.494;2022-07-05T08:29:42;23.00;96.10
2757;DHT22;1386;50.862;6.494;2022-07-05T08:32:09;22.80;96.90
2757;DHT22;1386;50.862;6.494;2022-07-05T08:34:38;22.90;96.50
2757;DHT22;1386;50.862;6.494;2022-07-05T08:37:06;23.10;95.70
2757;DHT22;1386;50.862;6.494;2022-07-05T08:39:32;23.40;95.70
2757;DHT22;1386;50.862;6.494;2022-07-05T08:42:00;23.60;95.20
2757;DHT22;1386;50.862;6.494;2022-07-05T08:44:28;23.80;95.00
2757;DHT22;1386;50.862;6.494;2022-07-05T08:46:57;24.00;94.60
2757;DHT22;1386;50.862;6.494;2022-07-05T08:49:26;24.10;94.10
2757;DHT22;1386;50.862;6.494;2022-07-05T08:51:54;24.00;93.90
2757;DHT22;1386;50.862;6.494;2022-07-05T08:54:23;23.90;93.70
2757;DHT22;1386;50.862;6.494;2022-07-05T08:56:50;24.20;93.70
2757;DHT22;1386;50.862;6.494;2022-07-05T08:59:17;24.20;93.20
2757;DHT22;1386;50.862;6.494;2022-07-05T09:01:45;24.50;93.00
2757;DHT22;1386;50.862;6.494;2022-07-05T09:04:16;24.60;91.50
2757;DHT22;1386;50.862;6.494;2022-07-05T09:06:46;24.80;91.80
2757;DHT22;1386;50.862;6.494;2022-07-05T09:09:16;24.80;91.10
2757;DHT22;1386;50.862;6.494;2022-07-05T09:11:44;24.60;90.50
2757;DHT22;1386;50.862;6.494;2022-07-05T09:14:19;24.90;91.00
2757;DHT22;1386;50.862;6.494;2022-07-05T09:16:47;25.00;87.10
2757;DHT22;1386;50.862;6.494;2022-07-05T09:19:15;25.10;88.30
2757;DHT22;1386;50.862;6.494;2022-07-05T09:21:42;24.90;84.80
2757;DHT22;1386;50.862;6.494;2022-07-05T09:24:10;24.90;87.10
2757;DHT22;1386;50.862;6.494;2022-07-05T09:26:39;24.70;86.40
2757;DHT22;1386;50.862;6.494;2022-07-05T09:29:08;24.80;87.10
2757;DHT22;1386;50.862;6.494;2022-07-05T09:31:37;25.10;87.60
2757;DHT22;1386;50.862;6.494;2022-07-05T09:34:04;25.40;86.40
2757;DHT22;1386;50.862;6.494;2022-07-05T09:36:50;25.50;84.70
2757;DHT22;1386;50.862;6.494;2022-07-05T09:39:17;25.60;83.30
2757;DHT22;1386;50.862;6.494;2022-07-05T09:41:44;25.80;84.00
2757;DHT22;1386;50.862;6.494;2022-07-05T09:44:11;25.70;83.00
2757;DHT22;1386;50.862;6.494;2022-07-05T09:46:50;25.50;83.40
2757;DHT22;1386;50.862;6.494;2022-07-05T09:49:25;25.60;82.20
2757;DHT22;1386;50.862;6.494;2022-07-05T09:51:53;25.40;81.30
2757;DHT22;1386;50.862;6.494;2022-07-05T09:54:21;25.20;81.40
2757;DHT22;1386;50.862;6.494;2022-07-05T09:56:48;25.10;82.70
2757;DHT22;1386;50.862;6.494;2022-07-05T09:59:16;25.00;84.20
2757;DHT22;1386;50.862;6.494;2022-07-05T10:01:45;24.90;82.50
2757;DHT22;1386;50.862;6.494;2022-07-05T10:04:12;24.80;82.30
2757;DHT22;1386;50.862;6.494;2022-07-05T10:06:39;24.70;83.10
2757;DHT22;1386;50.862;6.494;2022-07-05T10:09:09;24.80;82.00
2757;DHT22;1386;50.862;6.494;2022-07-05T10:11:39;24.80;82.20
2757;DHT22;1386;50.862;6.494;2022-07-05T10:14:10;25.20;82.90
2757;DHT22;1386;50.862;6.494;2022-07-05T10:16:37;25.30;80.90
2757;DHT22;1386;50.862;6.494;2022-07-05T10:19:08;25.40;78.90
2757;DHT22;1386;50.862;6.494;2022-07-05T10:21:39;25.50;78.60
2757;DHT22;1386;50.862;6.494;2022-07-05T10:24:08;25.70;79.60
2757;DHT22;1386;50.862;6.494;2022-07-05T10:26:36;25.90;79.10
2757;DHT22;1386;50.862;6.494;2022-07-05T10:29:03;25.80;77.60
2757;DHT22;1386;50.862;6.494;2022-07-05T10:31:30;25.70;78.50
2757;DHT22;1386;50.862;6.494;2022-07-05T10:33:57;25.50;78.90
2757;DHT22;1386;50.862;6.494;2022-07-05T10:36:33;25.20;76.90
2757;DHT22;1386;50.862;6.494;2022-07-05T10:39:01;25.40;78.00
2757;DHT22;1386;50.862;6.494;2022-07-05T10:41:30;25.60;77.20
2757;DHT22;1386;50.862;6.494;2022-07-05T10:43:58;25.80;76.50
2757;DHT22;1386;50.862;6.494;2022-07-05T10:46:35;26.00;76.70
2757;DHT22;1386;50.862;6.494;2022-07-05T10:49:20;26.40;78.90
2757;DHT22;1386;50.862;6.494;2022-07-05T10:51:47;26.50;75.50
2757;DHT22;1386;50.862;6.494;2022-07-05T10:54:14;26.40;74.80
2757;DHT22;1386;50.862;6.494;2022-07-05T10:57:21;26.30;75.50
2757;DHT22;1386;50.862;6.494;2022-07-05T11:00:07;26.20;73.70
2757;DHT22;1386;50.862;6.494;2022-07-05T11:02:35;26.40;74.20
2757;DHT22;1386;50.862;6.494;2022-07-05T11:05:02;26.40;73.80
2757;DHT22;1386;50.862;6.494;2022-07-05T11:07:57;26.50;75.40
2757;DHT22;1386;50.862;6.494;2022-07-05T11:10:24;26.80;75.50
2757;DHT22;1386;50.862;6.494;2022-07-05T11:12:53;26.70;72.30
2757;DHT22;1386;50.862;6.494;2022-07-05T11:15:20;26.30;73.20
2757;DHT22;1386;50.862;6.494;2022-07-05T11:17:47;26.30;73.70
2757;DHT22;1386;50.862;6.494;2022-07-05T11:20:16;26.40;72.40
2757;DHT22;1386;50.862;6.494;2022-07-05T11:23:05;26.40;72.10
2757;DHT22;1386;50.862;6.494;2022-07-05T11:25:34;26.70;75.30
2757;DHT22;1386;50.862;6.494;2022-07-05T11:28:07;26.80;73.40
2757;DHT22;1386;50.862;6.494;2022-07-05T11:30:50;26.90;74.20
2757;DHT22;1386;50.862;6.494;2022-07-05T11:33:40;26.80;74.00
2757;DHT22;1386;50.862;6.494;2022-07-05T11:36:22;26.70;73.60
2757;DHT22;1386;50.862;6.494;2022-07-05T11:39:10;26.70;73.00
2757;DHT22;1386;50.862;6.494;2022-07-05T11:41:39;26.80;73.70
2757;DHT22;1386;50.862;6.494;2022-07-05T11:44:07;26.90;72.80
2757;DHT22;1386;50.862;6.494;2022-07-05T11:46:34;26.60;69.40
2757;DHT22;1386;50.862;6.494;2022-07-05T11:49:01;26.60;70.30
2757;DHT22;1386;50.862;6.494;2022-07-05T11:51:28;26.70;71.30
2757;DHT22;1386;50.862;6.494;2022-07-05T11:53:55;26.80;67.90
2757;DHT22;1386;50.862;6.494;2022-07-05T11:56:22;26.80;69.40
2757;DHT22;1386;50.862;6.494;2022-07-05T11:58:49;27.00;70.00
2757;DHT22;1386;50.862;6.494;2022-07-05T12:01:17;27.00;70.40
2757;DHT22;1386;50.862;6.494;2022-07-05T12:03:53;27.20;70.90
2757;DHT22;1386;50.862;6.494;2022-07-05T12:06:21;27.20;70.60
2757;DHT22;1386;50.862;6.494;2022-07-05T12:09:01;27.30;70.70
2757;DHT22;1386;50.862;6.494;2022-07-05T12:11:28;27.10;70.20
2757;DHT22;1386;50.862;6.494;2022-07-05T12:14:19;26.80;67.70
2757;DHT22;1386;50.862;6.494;2022-07-05T12:16:48;26.60;67.90
2757;DHT22;1386;50.862;6.494;2022-07-05T12:19:24;26.60;69.40
2757;DHT22;1386;50.862;6.494;2022-07-05T12:21:52;26.70;70.40
2757;DHT22;1386;50.862;6.494;2022-07-05T12:24:20;26.90;70.10
2757;DHT22;1386;50.862;6.494;2022-07-05T12:26:48;27.00;70.80
2757;DHT22;1386;50.862;6.494;2022-07-05T12:29:16;26.80;69.70
2757;DHT22;1386;50.862;6.494;2022-07-05T12:31:59;26.60;69.60
2757;DHT22;1386;50.862;6.494;2022-07-05T12:34:27;26.40;70.90
2757;DHT22;1386;50.862;6.494;2022-07-05T12:36:55;26.30;71.70
2757;DHT22;1386;50.862;6.494;2022-07-05T12:39:22;26.30;71.40
2757;DHT22;1386;50.862;6.494;2022-07-05T12:41:50;26.30;68.60
2757;DHT22;1386;50.862;6.494;2022-07-05T12:44:20;26.20;67.20
2757;DHT22;1386;50.862;6.494;2022-07-05T12:46:49;25.90;67.30
2757;DHT22;1386;50.862;6.494;2022-07-05T12:49:18;25.80;69.50
2757;DHT22;1386;50.862;6.494;2022-07-05T12:51:45;25.80;69.50
2757;DHT22;1386;50.862;6.494;2022-07-05T12:54:20;25.80;69.70
2757;DHT22;1386;50.862;6.494;2022-07-05T12:57:07;26.00;70.30
2757;DHT22;1386;50.862;6.494;2022-07-05T12:59:59;26.10;71.50
2757;DHT22;1386;50.862;6.494;2022-07-05T13:02:36;26.10;70.40
2757;DHT22;1386;50.862;6.494;2022-07-05T13:05:08;26.00;69.00
2757;DHT22;1386;50.862;6.494;2022-07-05T13:07:41;26.00;70.70
2757;DHT22;1386;50.862;6.494;2022-07-05T13:10:26;26.20;71.00
2757;DHT22;1386;50.862;6.494;2022-07-05T13:12:57;26.40;70.60
2757;DHT22;1386;50.862;6.494;2022-07-05T13:15:24;26.10;69.70
2757;DHT22;1386;50.862;6.494;2022-07-05T13:17:52;26.00;69.70
2757;DHT22;1386;50.862;6.494;2022-07-05T13:20:23;26.10;69.50
2757;DHT22;1386;50.862;6.494;2022-07-05T13:22:50;26.20;69.30
2757;DHT22;1386;50.862;6.494;2022-07-05T13:25:17;26.20;67.50
2757;DHT22;1386;50.862;6.494;2022-07-05T13:27:45;26.20;69.40
2757;DHT22;1386;50.862;6.494;2022-07-05T13:30:18;26.30;68.80
2757;DHT22;1386;50.862;6.494;2022-07-05T13:32:47;26.50;70.60
2757;DHT22;1386;50.862;6.494;2022-07-05T13:35:14;26.70;71.00
2757;DHT22;1386;50.862;6.494;2022-07-05T13:37:42;26.60;67.20
2757;DHT22;1386;50.862;6.494;2022-07-05T13:40:10;26.60;67.40
2757;DHT22;1386;50.862;6.494;2022-07-05T13:42:37;26.60;67.10
2757;DHT22;1386;50.862;6.494;2022-07-05T13:45:05;26.50;66.80
2757;DHT22;1386;50.862;6.494;2022-07-05T13:47:32;26.60;67.00
2757;DHT22;1386;50.862;6.494;2022-07-05T13:49:59;26.70;68.00
2757;DHT22;1386;50.862;6.494;2022-07-05T13:52:41;26.60;67.80
2757;DHT22;1386;50.862;6.494;2022-07-05T13:55:08;26.50;67.50
2757;DHT22;1386;50.862;6.494;2022-07-05T13:57:35;26.40;66.90
2757;DHT22;1386;50.862;6.494;2022-07-05T14:00:03;26.50;67.50
2757;DHT22;1386;50.862;6.494;2022-07-05T14:02:30;26.60;67.60
2757;DHT22;1386;50.862;6.494;2022-07-05T14:04:56;26.70;68.70
2757;DHT22;1386;50.862;6.494;2022-07-05T14:07:23;26.80;69.30
2757;DHT22;1386;50.862;6.494;2022-07-05T14:09:51;26.60;67.30
2757;DHT22;1386;50.862;6.494;2022-07-05T14:12:18;26.40;67.40
2757;DHT22;1386;50.862;6.494;2022-07-05T14:14:45;26.40;69.00
2757;DHT22;1386;50.862;6.494;2022-07-05T14:17:12;26.40;68.20
2757;DHT22;1386;50.862;6.494;2022-07-05T14:19:39;26.40;67.40
2757;DHT22;1386;50.862;6.494;2022-07-05T14:22:06;26.30;67.00
2757;DHT22;1386;50.862;6.494;2022-07-05T14:24:32;26.40;68.20
2757;DHT22;1386;50.862;6.494;2022-07-05T14:27:01;26.40;67.90
2757;DHT22;1386;50.862;6.494;2022-07-05T14:29:27;26.30;67.80
2757;DHT22;1386;50.862;6.494;2022-07-05T14:31:54;26.40;68.20
2757;DHT22;1386;50.862;6.494;2022-07-05T14:34:21;26.30;66.60
2757;DHT22;1386;50.862;6.494;2022-07-05T14:36:48;26.10;66.70
2757;DHT22;1386;50.862;6.494;2022-07-05T14:39:15;26.00;67.50
2757;DHT22;1386;50.862;6.494;2022-07-05T14:41:42;26.10;68.50
2757;DHT22;1386;50.862;6.494;2022-07-05T14:44:10;25.90;68.00
2757;DHT22;1386;50.862;6.494;2022-07-05T14:46:38;25.80;68.10
2757;DHT22;1386;50.862;6.494;2022-07-05T14:49:05;25.90;68.20
2757;DHT22;1386;50.862;6.494;2022-07-05T14:51:32;25.80;66.80
2757;DHT22;1386;50.862;6.494;2022-07-05T14:53:59;25.80;68.10
2757;DHT22;1386;50.862;6.494;2022-07-05T14:56:26;25.70;67.30
2757;DHT22;1386;50.862;6.494;2022-07-05T14:58:53;25.70;66.40
2757;DHT22;1386;50.862;6.494;2022-07-05T15:01:22;25.70;66.50
2757;DHT22;1386;50.862;6.494;2022-07-05T15:03:49;25.70;67.30
2757;DHT22;1386;50.862;6.494;2022-07-05T15:06:15;25.60;66.70
2757;DHT22;1386;50.862;6.494;2022-07-05T15:08:42;25.60;67.40
2757;DHT22;1386;50.862;6.494;2022-07-05T15:11:09;25.60;67.00
2757;DHT22;1386;50.862;6.494;2022-07-05T15:13:36;25.70;66.30
2757;DHT22;1386;50.862;6.494;2022-07-05T15:16:04;25.70;67.20
2757;DHT22;1386;50.862;6.494;2022-07-05T15:18:32;25.70;67.70
2757;DHT22;1386;50.862;6.494;2022-07-05T15:20:59;25.70;67.30
2757;DHT22;1386;50.862;6.494;2022-07-05T15:23:27;25.70;68.50
2757;DHT22;1386;50.862;6.494;2022-07-05T15:25:54;25.80;68.60
2757;DHT22;1386;50.862;6.494;2022-07-05T15:28:21;25.90;69.30
2757;DHT22;1386;50.862;6.494;2022-07-05T15:30:48;25.90;68.00
2757;DHT22;1386;50.862;6.494;2022-07-05T15:33:15;25.80;66.90
2757;DHT22;1386;50.862;6.494;2022-07-05T15:35:43;25.80;66.40
2757;DHT22;1386;50.862;6.494;2022-07-05T15:38:11;25.80;66.20
2757;DHT22;1386;50.862;6.494;2022-07-05T15:40:37;25.90;67.00
2757;DHT22;1386;50.862;6.494;2022-07-05T15:43:04;25.90;67.20
2757;DHT22;1386;50.862;6.494;2022-07-05T15:45:31;25.90;66.70
2757;DHT22;1386;50.862;6.494;2022-07-05T15:47:58;25.90;66.60
2757;DHT22;1386;50.862;6.494;2022-07-05T15:50:25;25.90;67.10
2757;DHT22;1386;50.862;6.494;2022-07-05T15:52:53;25.90;68.20
2757;DHT22;1386;50.862;6.494;2022-07-05T15:55:20;25.70;67.40
2757;DHT22;1386;50.862;6.494;2022-07-05T15:57:47;25.70;67.90
2757;DHT22;1386;50.862;6.494;2022-07-05T16:00:14;25.50;67.90
2757;DHT22;1386;50.862;6.494;2022-07-05T16:02:41;25.40;68.10
2757;DHT22;1386;50.862;6.494;2022-07-05T16:05:09;25.30;69.10
2757;DHT22;1386;50.862;6.494;2022-07-05T16:07:36;25.10;70.70
2757;DHT22;1386;50.862;6.494;2022-07-05T16:10:05;25.00;71.10
2757;DHT22;1386;50.862;6.494;2022-07-05T16:12:32;25.00;71.30